Triumph — WDC9555 — position and weather

sailwx.info

Track history (hours):
 
Tides and Currents Weather Stations Pressure Air Temp Water Temp Dewpoint Dewpoint Depression Visibility Wind Speed Wind Dir Waves Ship Positions

Triumph

More information available from US FCC via Universal Licensing System and Coast Guard Vessel Documentation Center.

Last reported at 2014-Jul-24 16:18 UTC. Time now 2014-Jul-28 04:23 UTC.
Position N 58°17' W 136°14'.

Length 24 m; draft 4 m.

Type: Tow > 200 m length. MMSI: 367103880.

Date/timePositionNaut miles runAvg speedWind from/ knotsBaromVisibWave heightAir tempDewpointWater temp
2014-Jul-24 16:18N 58°17' W 136°14'6 8.1
2014-Jul-24 15:33N 58°15' W 136°04'8 7.5
2014-Jul-24 14:33N 58°18' W 135°50'8 7.7
2014-Jul-24 13:31N 58°15' W 135°36'277 7.1
2014-Jul-22 22:26N 54°23' W 131°05'8 7.8
2014-Jul-22 21:25N 54°19' W 130°53'7 8.6
2014-Jul-22 20:33N 54°14' W 130°44'9 8.4
2014-Jul-22 19:32N 54°10' W 130°31'141 7.8
2014-Jul-22 01:27N 52°15' W 128°17'7 8.2
2014-Jul-22 00:33N 52°11' W 128°06'7 6.2
2014-Jul-21 23:24N 52°05' W 128°02'30 7.8
2014-Jul-21 19:33N 51°35' W 127°53'9 8.7
2014-Jul-21 18:28N 51°26' W 127°51'15 8.0
2014-Jul-21 16:33N 51°10' W 127°51'8 7.9
2014-Jul-21 15:33N 51°05' W 127°43'8 7.9
2014-Jul-21 14:33N 50°59' W 127°34'8 8.1
2014-Jul-21 13:33N 50°54' W 127°24'9 8.5
2014-Jul-21 12:33N 50°49' W 127°14'11 8.9
2014-Jul-21 11:20N 50°43' W 126°59'17 8.9
2014-Jul-21 09:22N 50°31' W 126°38'18 9.1
2014-Jul-21 07:23N 50°29' W 126°10'30 7.2
2014-Jul-21 03:13N 50°19' W 125°25'6 8.7
2014-Jul-21 02:30N 50°13' W 125°22'9 8.4
2014-Jul-21 01:29N 50°06' W 125°17'8 8.1
2014-Jul-21 00:32N 49°59' W 125°11'4 4.3
2014-Jul-20 23:33N 49°56' W 125°06'5 4.7
2014-Jul-20 22:28N 49°53' W 125°00'4 4.5
2014-Jul-20 21:32N 49°50' W 124°55'5 4.5
2014-Jul-20 20:33N 49°48' W 124°49'6 6.4
2014-Jul-20 19:33N 49°43' W 124°42'6 6.4
2014-Jul-20 18:33N 49°39' W 124°34'7 7.1
2014-Jul-20 17:33N 49°35' W 124°25'7 6.6
2014-Jul-20 16:33N 49°32' W 124°16'7 6.5
2014-Jul-20 15:33N 49°29' W 124°08'7 6.5
2014-Jul-20 14:33N 49°25' W 123°59'6 6.4
2014-Jul-20 13:33N 49°22' W 123°51'7 7.0
2014-Jul-20 12:33N 49°17' W 123°43'8 7.6
2014-Jul-20 11:33N 49°12' W 123°34'7 7.4
2014-Jul-20 10:33N 49°07' W 123°26'8 8.1
2014-Jul-20 09:33N 49°02' W 123°17'8 7.9
2014-Jul-20 08:33N 48°57' W 123°08'8 8.0
2014-Jul-20 07:33N 48°51' W 122°59'9 8.8
2014-Jul-20 06:33N 48°46' W 122°48'8 8.2
2014-Jul-20 05:33N 48°39' W 122°44'9 9.4
2014-Jul-20 04:33N 48°29' W 122°44'13 8.7
2014-Jul-20 03:03N 48°16' W 122°47'11 6.6
2014-Jul-20 01:27N 48°07' W 122°39'8 8.8
2014-Jul-20 00:31N 47°59' W 122°35'4 8.5
2014-Jul-20 00:01N 47°57' W 122°30'4 8.3
2014-Jul-19 23:33N 47°53' W 122°28'2 8.4
2014-Jul-19 23:17N 47°51' W 122°27'6 8.4
2014-Jul-19 22:33N 47°45' W 122°26'0 7.9
2014-Jul-19 22:32N 47°45' W 122°26'8 8.3
2014-Jul-19 21:33N 47°37' W 122°23'0 7.5
2014-Jul-19 21:32N 47°37' W 122°23'2 2.0
2014-Jul-19 20:33N 47°38' W 122°25'0 8.9
2014-Jul-19 20:32N 47°38' W 122°25'2 2.3
2014-Jul-19 19:33N 47°40' W 122°23'0 7.3
2014-Jul-19 19:31N 47°40' W 122°23'  
2014-Jul-17 02:43N 47°39' W 122°22'1 3.8
2014-Jul-17 02:33N 47°40' W 122°23'0 0.0
2014-Jul-17 02:33N 47°40' W 122°23'2 2.5
2014-Jul-17 01:33N 47°40' W 122°26'0 7.2
2014-Jul-17 01:33N 47°40' W 122°26'5 4.8
2014-Jul-17 00:33N 47°36' W 122°23'0 0.0
2014-Jul-17 00:33N 47°36' W 122°23'6 6.2
2014-Jul-16 23:33N 47°41' W 122°28'0 0.0
2014-Jul-16 23:33N 47°41' W 122°28'8 8.1
2014-Jul-16 22:33N 47°49' W 122°28'010.3
2014-Jul-16 22:33N 47°49' W 122°28'8 7.7
2014-Jul-16 21:33N 47°56' W 122°32'0 8.2
2014-Jul-16 21:33N 47°56' W 122°32'6 5.9
2014-Jul-16 20:30N 48°01' W 122°37'7 5.6
2014-Jul-16 19:15N 48°08' W 122°39'4 5.4
2014-Jul-16 18:27N 48°11' W 122°44'6 5.6
2014-Jul-16 17:27N 48°16' W 122°48'8 8.5
2014-Jul-16 16:33N 48°24' W 122°45'8 8.3
2014-Jul-16 15:33N 48°32' W 122°45'7 7.2
2014-Jul-16 14:33N 48°39' W 122°44'7 6.8
2014-Jul-16 13:33N 48°45' W 122°48'7 7.3
2014-Jul-16 12:33N 48°50' W 122°56'3 3.0
2014-Jul-16 11:33N 48°51' W 123°00'8 7.7
2014-Jul-16 10:33N 48°55' W 123°10'9 8.7
2014-Jul-16 09:33N 49°01' W 123°20'8 8.4
2014-Jul-16 08:33N 49°07' W 123°29'8 8.4
2014-Jul-16 07:33N 49°13' W 123°38'9 8.6
2014-Jul-16 06:33N 49°19' W 123°47'8 7.7
2014-Jul-16 05:33N 49°24' W 123°56'7 7.5
2014-Jul-16 04:33N 49°28' W 124°06'8 7.8
2014-Jul-16 03:33N 49°32' W 124°16'7 7.3
2014-Jul-16 02:33N 49°36' W 124°26'8 7.9
2014-Jul-16 01:33N 49°40' W 124°36'8 8.1
2014-Jul-16 00:31N 49°45' W 124°46'8 8.0
2014-Jul-15 23:33N 49°50' W 124°55'9 7.8
2014-Jul-15 22:28N 49°56' W 125°05'17 7.7
2014-Jul-15 20:12N 50°09' W 125°22'3 4.6
2014-Jul-15 19:33N 50°12' W 125°22'2 1.9
2014-Jul-15 18:33N 50°14' W 125°23'4 3.4
2014-Jul-15 17:32N 50°18' W 125°25'42 6.0
2014-Jul-15 10:32N 50°30' W 126°28'8 7.7
2014-Jul-15 09:31N 50°32' W 126°40'8 7.9
2014-Jul-15 08:29N 50°38' W 126°48'9 8.8
2014-Jul-15 07:30N 50°43' W 126°59'8 7.7
2014-Jul-15 06:31N 50°47' W 127°09'8 8.1
2014-Jul-15 05:33N 50°52' W 127°19'7 7.4
2014-Jul-15 04:33N 50°56' W 127°28'7 7.0
2014-Jul-15 03:33N 51°01' W 127°37'7 7.0
2014-Jul-15 02:33N 51°06' W 127°44'8 7.7
2014-Jul-15 01:32N 51°12' W 127°52'9 8.8
2014-Jul-15 00:33N 51°21' W 127°54'20 8.6
2014-Jul-14 22:11N 51°35' W 128°18'6 8.9
2014-Jul-14 21:33N 51°39' W 128°22'9 8.1
2014-Jul-14 20:29N 51°47' W 128°30'  
Track history (hours):
 
Tides and Currents Weather Stations Pressure Air Temp Water Temp Dewpoint Dewpoint Depression Visibility Wind Speed Wind Dir Waves Ship Positions

Triumph

More information available from US FCC via Universal Licensing System and Coast Guard Vessel Documentation Center.

Last reported at 2014-Jul-24 16:18 UTC. Time now 2014-Jul-28 04:23 UTC.
Position N 58°17' W 136°14'.

Length 24 m; draft 4 m.

Type: Tow > 200 m length. MMSI: 367103880.

Date/timePositionNaut miles runAvg speedWind from/ knotsBaromVisibWave heightAir tempDewpointWater temp
2014-Jul-24 16:18N 58°17' W 136°14'6 8.1
2014-Jul-24 15:33N 58°15' W 136°04'8 7.5
2014-Jul-24 14:33N 58°18' W 135°50'8 7.7
2014-Jul-24 13:31N 58°15' W 135°36'277 7.1
2014-Jul-22 22:26N 54°23' W 131°05'8 7.8
2014-Jul-22 21:25N 54°19' W 130°53'7 8.6
2014-Jul-22 20:33N 54°14' W 130°44'9 8.4
2014-Jul-22 19:32N 54°10' W 130°31'141 7.8
2014-Jul-22 01:27N 52°15' W 128°17'7 8.2
2014-Jul-22 00:33N 52°11' W 128°06'7 6.2
2014-Jul-21 23:24N 52°05' W 128°02'30 7.8
2014-Jul-21 19:33N 51°35' W 127°53'9 8.7
2014-Jul-21 18:28N 51°26' W 127°51'15 8.0
2014-Jul-21 16:33N 51°10' W 127°51'8 7.9
2014-Jul-21 15:33N 51°05' W 127°43'8 7.9
2014-Jul-21 14:33N 50°59' W 127°34'8 8.1
2014-Jul-21 13:33N 50°54' W 127°24'9 8.5
2014-Jul-21 12:33N 50°49' W 127°14'11 8.9
2014-Jul-21 11:20N 50°43' W 126°59'17 8.9
2014-Jul-21 09:22N 50°31' W 126°38'18 9.1
2014-Jul-21 07:23N 50°29' W 126°10'30 7.2
2014-Jul-21 03:13N 50°19' W 125°25'6 8.7
2014-Jul-21 02:30N 50°13' W 125°22'9 8.4
2014-Jul-21 01:29N 50°06' W 125°17'8 8.1
2014-Jul-21 00:32N 49°59' W 125°11'4 4.3
2014-Jul-20 23:33N 49°56' W 125°06'5 4.7
2014-Jul-20 22:28N 49°53' W 125°00'4 4.5
2014-Jul-20 21:32N 49°50' W 124°55'5 4.5
2014-Jul-20 20:33N 49°48' W 124°49'6 6.4
2014-Jul-20 19:33N 49°43' W 124°42'6 6.4
2014-Jul-20 18:33N 49°39' W 124°34'7 7.1
2014-Jul-20 17:33N 49°35' W 124°25'7 6.6
2014-Jul-20 16:33N 49°32' W 124°16'7 6.5
2014-Jul-20 15:33N 49°29' W 124°08'7 6.5
2014-Jul-20 14:33N 49°25' W 123°59'6 6.4
2014-Jul-20 13:33N 49°22' W 123°51'7 7.0
2014-Jul-20 12:33N 49°17' W 123°43'8 7.6
2014-Jul-20 11:33N 49°12' W 123°34'7 7.4
2014-Jul-20 10:33N 49°07' W 123°26'8 8.1
2014-Jul-20 09:33N 49°02' W 123°17'8 7.9
2014-Jul-20 08:33N 48°57' W 123°08'8 8.0
2014-Jul-20 07:33N 48°51' W 122°59'9 8.8
2014-Jul-20 06:33N 48°46' W 122°48'8 8.2
2014-Jul-20 05:33N 48°39' W 122°44'9 9.4
2014-Jul-20 04:33N 48°29' W 122°44'13 8.7
2014-Jul-20 03:03N 48°16' W 122°47'11 6.6
2014-Jul-20 01:27N 48°07' W 122°39'8 8.8
2014-Jul-20 00:31N 47°59' W 122°35'4 8.5
2014-Jul-20 00:01N 47°57' W 122°30'4 8.3
2014-Jul-19 23:33N 47°53' W 122°28'2 8.4
2014-Jul-19 23:17N 47°51' W 122°27'6 8.4
2014-Jul-19 22:33N 47°45' W 122°26'0 7.9
2014-Jul-19 22:32N 47°45' W 122°26'8 8.3
2014-Jul-19 21:33N 47°37' W 122°23'0 7.5
2014-Jul-19 21:32N 47°37' W 122°23'2 2.0
2014-Jul-19 20:33N 47°38' W 122°25'0 8.9
2014-Jul-19 20:32N 47°38' W 122°25'2 2.3
2014-Jul-19 19:33N 47°40' W 122°23'0 7.3
2014-Jul-19 19:31N 47°40' W 122°23'  
2014-Jul-17 02:43N 47°39' W 122°22'1 3.8
2014-Jul-17 02:33N 47°40' W 122°23'0 0.0
2014-Jul-17 02:33N 47°40' W 122°23'2 2.5
2014-Jul-17 01:33N 47°40' W 122°26'0 7.2
2014-Jul-17 01:33N 47°40' W 122°26'5 4.8
2014-Jul-17 00:33N 47°36' W 122°23'0 0.0
2014-Jul-17 00:33N 47°36' W 122°23'6 6.2
2014-Jul-16 23:33N 47°41' W 122°28'0 0.0
2014-Jul-16 23:33N 47°41' W 122°28'8 8.1
2014-Jul-16 22:33N 47°49' W 122°28'010.3
2014-Jul-16 22:33N 47°49' W 122°28'8 7.7
2014-Jul-16 21:33N 47°56' W 122°32'0 8.2
2014-Jul-16 21:33N 47°56' W 122°32'6 5.9
2014-Jul-16 20:30N 48°01' W 122°37'7 5.6
2014-Jul-16 19:15N 48°08' W 122°39'4 5.4
2014-Jul-16 18:27N 48°11' W 122°44'6 5.6
2014-Jul-16 17:27N 48°16' W 122°48'8 8.5
2014-Jul-16 16:33N 48°24' W 122°45'8 8.3
2014-Jul-16 15:33N 48°32' W 122°45'7 7.2
2014-Jul-16 14:33N 48°39' W 122°44'7 6.8
2014-Jul-16 13:33N 48°45' W 122°48'7 7.3
2014-Jul-16 12:33N 48°50' W 122°56'3 3.0
2014-Jul-16 11:33N 48°51' W 123°00'8 7.7
2014-Jul-16 10:33N 48°55' W 123°10'9 8.7
2014-Jul-16 09:33N 49°01' W 123°20'8 8.4
2014-Jul-16 08:33N 49°07' W 123°29'8 8.4
2014-Jul-16 07:33N 49°13' W 123°38'9 8.6
2014-Jul-16 06:33N 49°19' W 123°47'8 7.7
2014-Jul-16 05:33N 49°24' W 123°56'7 7.5
2014-Jul-16 04:33N 49°28' W 124°06'8 7.8
2014-Jul-16 03:33N 49°32' W 124°16'7 7.3
2014-Jul-16 02:33N 49°36' W 124°26'8 7.9
2014-Jul-16 01:33N 49°40' W 124°36'8 8.1
2014-Jul-16 00:31N 49°45' W 124°46'8 8.0
2014-Jul-15 23:33N 49°50' W 124°55'9 7.8
2014-Jul-15 22:28N 49°56' W 125°05'17 7.7
2014-Jul-15 20:12N 50°09' W 125°22'3 4.6
2014-Jul-15 19:33N 50°12' W 125°22'2 1.9
2014-Jul-15 18:33N 50°14' W 125°23'4 3.4
2014-Jul-15 17:32N 50°18' W 125°25'42 6.0
2014-Jul-15 10:32N 50°30' W 126°28'8 7.7
2014-Jul-15 09:31N 50°32' W 126°40'8 7.9
2014-Jul-15 08:29N 50°38' W 126°48'9 8.8
2014-Jul-15 07:30N 50°43' W 126°59'8 7.7
2014-Jul-15 06:31N 50°47' W 127°09'8 8.1
2014-Jul-15 05:33N 50°52' W 127°19'7 7.4
2014-Jul-15 04:33N 50°56' W 127°28'7 7.0
2014-Jul-15 03:33N 51°01' W 127°37'7 7.0
2014-Jul-15 02:33N 51°06' W 127°44'8 7.7
2014-Jul-15 01:32N 51°12' W 127°52'9 8.8
2014-Jul-15 00:33N 51°21' W 127°54'20 8.6
2014-Jul-14 22:11N 51°35' W 128°18'6 8.9
2014-Jul-14 21:33N 51°39' W 128°22'9 8.1
2014-Jul-14 20:29N 51°47' W 128°30'  

Dump ship's entire track history